sensor_id;sensor_type;location;lat;lon;timestamp;temperature;humidity
35111;DHT22;21290;50.158;8.658;2023-05-10T00:01:13;13.60;99.90
35111;DHT22;21290;50.158;8.658;2023-05-10T00:03:40;13.60;99.90
35111;DHT22;21290;50.158;8.658;2023-05-10T00:06:07;13.50;99.90
35111;DHT22;21290;50.158;8.658;2023-05-10T00:08:34;13.50;99.90
35111;DHT22;21290;50.158;8.658;2023-05-10T00:11:00;13.50;99.90
35111;DHT22;21290;50.158;8.658;2023-05-10T00:13:27;13.40;99.90
35111;DHT22;21290;50.158;8.658;2023-05-10T00:15:54;13.40;99.90
35111;DHT22;21290;50.158;8.658;2023-05-10T00:18:20;13.40;99.90
35111;DHT22;21290;50.158;8.658;2023-05-10T00:20:47;13.40;99.90
35111;DHT22;21290;50.158;8.658;2023-05-10T00:23:15;13.30;99.90
35111;DHT22;21290;50.158;8.658;2023-05-10T00:25:41;13.30;99.90
35111;DHT22;21290;50.158;8.658;2023-05-10T00:28:08;13.30;99.90
35111;DHT22;21290;50.158;8.658;2023-05-10T00:30:35;13.30;99.90
35111;DHT22;21290;50.158;8.658;2023-05-10T00:33:01;13.30;99.90
35111;DHT22;21290;50.158;8.658;2023-05-10T00:35:28;13.30;99.90
35111;DHT22;21290;50.158;8.658;2023-05-10T00:37:54;13.30;99.90
35111;DHT22;21290;50.158;8.658;2023-05-10T00:40:21;13.30;99.90
35111;DHT22;21290;50.158;8.658;2023-05-10T00:42:48;13.30;99.90
35111;DHT22;21290;50.158;8.658;2023-05-10T00:45:14;13.30;99.90
35111;DHT22;21290;50.158;8.658;2023-05-10T00:47:41;13.20;99.90
35111;DHT22;21290;50.158;8.658;2023-05-10T00:50:08;13.20;99.90
35111;DHT22;21290;50.158;8.658;2023-05-10T00:52:35;13.10;99.90
35111;DHT22;21290;50.158;8.658;2023-05-10T00:55:02;13.10;99.90
35111;DHT22;21290;50.158;8.658;2023-05-10T00:57:29;13.10;99.90
35111;DHT22;21290;50.158;8.658;2023-05-10T00:59:57;13.10;99.90
35111;DHT22;21290;50.158;8.658;2023-05-10T01:02:24;13.10;99.90
35111;DHT22;21290;50.158;8.658;2023-05-10T01:04:51;13.10;99.90
35111;DHT22;21290;50.158;8.658;2023-05-10T01:07:18;13.00;99.90
35111;DHT22;21290;50.158;8.658;2023-05-10T01:09:45;13.00;99.90
35111;DHT22;21290;50.158;8.658;2023-05-10T01:12:12;13.00;99.90
35111;DHT22;21290;50.158;8.658;2023-05-10T01:14:39;13.00;99.90
35111;DHT22;21290;50.158;8.658;2023-05-10T01:17:06;12.90;99.90
35111;DHT22;21290;50.158;8.658;2023-05-10T01:19:34;12.90;99.90
35111;DHT22;21290;50.158;8.658;2023-05-10T01:22:25;12.90;99.90
35111;DHT22;21290;50.158;8.658;2023-05-10T01:28:39;12.80;99.90
35111;DHT22;21290;50.158;8.658;2023-05-10T01:33:47;12.80;99.90
35111;DHT22;21290;50.158;8.658;2023-05-10T01:36:23;12.80;99.90
35111;DHT22;21290;50.158;8.658;2023-05-10T01:39:02;12.70;99.90
35111;DHT22;21290;50.158;8.658;2023-05-10T01:41:51;12.70;99.90
35111;DHT22;21290;50.158;8.658;2023-05-10T01:44:35;12.70;99.90
35111;DHT22;21290;50.158;8.658;2023-05-10T01:47:10;12.70;99.90
35111;DHT22;21290;50.158;8.658;2023-05-10T01:49:56;12.60;99.90
35111;DHT22;21290;50.158;8.658;2023-05-10T01:52:41;12.60;99.90
35111;DHT22;21290;50.158;8.658;2023-05-10T01:55:13;12.60;99.90
35111;DHT22;21290;50.158;8.658;2023-05-10T01:57:43;12.60;99.90
35111;DHT22;21290;50.158;8.658;2023-05-10T02:00:11;12.60;99.90
35111;DHT22;21290;50.158;8.658;2023-05-10T02:02:41;12.60;99.90
35111;DHT22;21290;50.158;8.658;2023-05-10T02:05:12;12.60;99.90
35111;DHT22;21290;50.158;8.658;2023-05-10T02:07:39;12.60;99.90
35111;DHT22;21290;50.158;8.658;2023-05-10T02:10:07;12.60;99.90
35111;DHT22;21290;50.158;8.658;2023-05-10T02:12:36;12.60;99.90
35111;DHT22;21290;50.158;8.658;2023-05-10T02:15:05;12.60;99.90
35111;DHT22;21290;50.158;8.658;2023-05-10T02:17:35;12.60;99.90
35111;DHT22;21290;50.158;8.658;2023-05-10T02:20:05;12.50;99.90
35111;DHT22;21290;50.158;8.658;2023-05-10T02:22:33;12.50;99.90
35111;DHT22;21290;50.158;8.658;2023-05-10T02:25:02;12.50;99.90
35111;DHT22;21290;50.158;8.658;2023-05-10T02:27:30;12.50;99.90
35111;DHT22;21290;50.158;8.658;2023-05-10T02:29:57;12.50;99.90
35111;DHT22;21290;50.158;8.658;2023-05-10T02:32:26;12.50;99.90
35111;DHT22;21290;50.158;8.658;2023-05-10T02:34:54;12.50;99.90
35111;DHT22;21290;50.158;8.658;2023-05-10T02:37:22;12.50;99.90
35111;DHT22;21290;50.158;8.658;2023-05-10T02:39:51;12.50;99.90
35111;DHT22;21290;50.158;8.658;2023-05-10T02:42:23;12.50;99.90
35111;DHT22;21290;50.158;8.658;2023-05-10T02:44:53;12.50;99.90
35111;DHT22;21290;50.158;8.658;2023-05-10T02:47:21;12.50;99.90
35111;DHT22;21290;50.158;8.658;2023-05-10T02:49:48;12.50;99.90
35111;DHT22;21290;50.158;8.658;2023-05-10T02:52:27;12.40;99.90
35111;DHT22;21290;50.158;8.658;2023-05-10T02:54:59;12.50;99.90
35111;DHT22;21290;50.158;8.658;2023-05-10T02:57:29;12.50;99.90
35111;DHT22;21290;50.158;8.658;2023-05-10T02:59:58;12.40;99.90
35111;DHT22;21290;50.158;8.658;2023-05-10T03:02:24;12.50;99.90
35111;DHT22;21290;50.158;8.658;2023-05-10T03:04:51;12.40;99.90
35111;DHT22;21290;50.158;8.658;2023-05-10T03:07:18;12.40;99.90
35111;DHT22;21290;50.158;8.658;2023-05-10T03:09:50;12.40;99.90
35111;DHT22;21290;50.158;8.658;2023-05-10T03:15:35;12.40;99.90
35111;DHT22;21290;50.158;8.658;2023-05-10T03:18:10;12.40;99.90
35111;DHT22;21290;50.158;8.658;2023-05-10T03:20:42;12.40;99.90
35111;DHT22;21290;50.158;8.658;2023-05-10T03:23:29;12.40;99.90
35111;DHT22;21290;50.158;8.658;2023-05-10T03:25:58;12.30;99.90
35111;DHT22;21290;50.158;8.658;2023-05-10T03:28:26;12.40;99.90
35111;DHT22;21290;50.158;8.658;2023-05-10T03:30:56;12.30;99.90
35111;DHT22;21290;50.158;8.658;2023-05-10T03:33:23;12.30;99.90
35111;DHT22;21290;50.158;8.658;2023-05-10T03:35:49;12.30;99.90
35111;DHT22;21290;50.158;8.658;2023-05-10T03:38:16;12.30;99.90
35111;DHT22;21290;50.158;8.658;2023-05-10T03:40:43;12.30;99.90
35111;DHT22;21290;50.158;8.658;2023-05-10T03:43:09;12.30;99.90
35111;DHT22;21290;50.158;8.658;2023-05-10T03:45:36;12.30;99.90
35111;DHT22;21290;50.158;8.658;2023-05-10T03:48:03;12.20;99.90
35111;DHT22;21290;50.158;8.658;2023-05-10T03:50:30;12.20;99.90
35111;DHT22;21290;50.158;8.658;2023-05-10T03:52:56;12.20;99.90
35111;DHT22;21290;50.158;8.658;2023-05-10T03:55:23;12.20;99.90
35111;DHT22;21290;50.158;8.658;2023-05-10T03:57:50;12.20;99.90
35111;DHT22;21290;50.158;8.658;2023-05-10T04:00:35;12.30;99.90
35111;DHT22;21290;50.158;8.658;2023-05-10T04:03:02;12.30;99.90
35111;DHT22;21290;50.158;8.658;2023-05-10T04:05:28;12.30;99.90
35111;DHT22;21290;50.158;8.658;2023-05-10T04:07:55;12.30;99.90
35111;DHT22;21290;50.158;8.658;2023-05-10T04:10:22;12.30;99.90
35111;DHT22;21290;50.158;8.658;2023-05-10T04:12:48;12.30;99.90
35111;DHT22;21290;50.158;8.658;2023-05-10T04:15:15;12.30;99.90
35111;DHT22;21290;50.158;8.658;2023-05-10T04:17:42;12.30;99.90
35111;DHT22;21290;50.158;8.658;2023-05-10T04:20:09;12.30;99.90
35111;DHT22;21290;50.158;8.658;2023-05-10T04:22:35;12.30;99.90
35111;DHT22;21290;50.158;8.658;2023-05-10T04:25:02;12.30;99.90
35111;DHT22;21290;50.158;8.658;2023-05-10T04:27:29;12.30;99.90
35111;DHT22;21290;50.158;8.658;2023-05-10T04:29:55;12.40;99.90
35111;DHT22;21290;50.158;8.658;2023-05-10T04:32:22;12.40;99.90
35111;DHT22;21290;50.158;8.658;2023-05-10T04:34:49;12.40;99.90
35111;DHT22;21290;50.158;8.658;2023-05-10T04:37:17;12.40;99.90
35111;DHT22;21290;50.158;8.658;2023-05-10T04:39:44;12.40;99.90
35111;DHT22;21290;50.158;8.658;2023-05-10T04:42:10;12.50;99.90
35111;DHT22;21290;50.158;8.658;2023-05-10T04:44:37;12.50;99.90
35111;DHT22;21290;50.158;8.658;2023-05-10T04:47:04;12.50;99.90
35111;DHT22;21290;50.158;8.658;2023-05-10T04:49:31;12.50;99.90
35111;DHT22;21290;50.158;8.658;2023-05-10T04:51:57;12.60;99.90
35111;DHT22;21290;50.158;8.658;2023-05-10T04:54:24;12.60;99.90
35111;DHT22;21290;50.158;8.658;2023-05-10T04:56:51;12.70;99.90
35111;DHT22;21290;50.158;8.658;2023-05-10T04:59:18;12.70;99.90
35111;DHT22;21290;50.158;8.658;2023-05-10T05:01:44;12.80;99.90
35111;DHT22;21290;50.158;8.658;2023-05-10T05:04:11;12.80;99.90
35111;DHT22;21290;50.158;8.658;2023-05-10T05:06:38;12.80;99.90
35111;DHT22;21290;50.158;8.658;2023-05-10T05:09:04;12.90;99.90
35111;DHT22;21290;50.158;8.658;2023-05-10T05:11:31;12.90;99.90
35111;DHT22;21290;50.158;8.658;2023-05-10T05:13:58;12.80;99.90
35111;DHT22;21290;50.158;8.658;2023-05-10T05:16:25;12.90;99.90
35111;DHT22;21290;50.158;8.658;2023-05-10T05:18:52;12.90;99.90
35111;DHT22;21290;50.158;8.658;2023-05-10T05:21:19;12.90;99.90
35111;DHT22;21290;50.158;8.658;2023-05-10T05:23:46;12.90;99.90
35111;DHT22;21290;50.158;8.658;2023-05-10T05:26:13;13.00;99.90
35111;DHT22;21290;50.158;8.658;2023-05-10T05:28:39;13.00;99.90
35111;DHT22;21290;50.158;8.658;2023-05-10T05:31:07;13.00;99.90
35111;DHT22;21290;50.158;8.658;2023-05-10T05:33:34;13.00;99.90
35111;DHT22;21290;50.158;8.658;2023-05-10T05:36:02;13.00;99.90
35111;DHT22;21290;50.158;8.658;2023-05-10T05:38:29;13.00;99.90
35111;DHT22;21290;50.158;8.658;2023-05-10T05:40:55;13.00;99.90
35111;DHT22;21290;50.158;8.658;2023-05-10T05:43:22;13.00;99.90
35111;DHT22;21290;50.158;8.658;2023-05-10T05:45:49;13.00;99.90
35111;DHT22;21290;50.158;8.658;2023-05-10T05:48:16;13.10;99.90
35111;DHT22;21290;50.158;8.658;2023-05-10T05:50:42;13.10;99.90
35111;DHT22;21290;50.158;8.658;2023-05-10T05:53:09;13.10;99.90
35111;DHT22;21290;50.158;8.658;2023-05-10T05:55:36;13.10;99.90
35111;DHT22;21290;50.158;8.658;2023-05-10T05:58:02;13.10;99.90
35111;DHT22;21290;50.158;8.658;2023-05-10T06:00:29;13.00;99.90
35111;DHT22;21290;50.158;8.658;2023-05-10T06:02:56;13.10;99.90
35111;DHT22;21290;50.158;8.658;2023-05-10T06:05:23;13.10;99.90
35111;DHT22;21290;50.158;8.658;2023-05-10T06:07:50;13.10;99.90
35111;DHT22;21290;50.158;8.658;2023-05-10T06:10:16;13.10;99.90
35111;DHT22;21290;50.158;8.658;2023-05-10T06:12:43;13.20;99.90
35111;DHT22;21290;50.158;8.658;2023-05-10T06:15:10;13.20;99.90
35111;DHT22;21290;50.158;8.658;2023-05-10T06:17:37;13.30;99.90
35111;DHT22;21290;50.158;8.658;2023-05-10T06:20:05;13.40;99.90
35111;DHT22;21290;50.158;8.658;2023-05-10T06:22:32;13.50;99.90
35111;DHT22;21290;50.158;8.658;2023-05-10T06:24:59;13.50;99.90
35111;DHT22;21290;50.158;8.658;2023-05-10T06:27:26;13.50;99.90
35111;DHT22;21290;50.158;8.658;2023-05-10T06:29:52;13.50;99.90
35111;DHT22;21290;50.158;8.658;2023-05-10T06:32:34;13.60;99.90
35111;DHT22;21290;50.158;8.658;2023-05-10T06:35:01;13.70;99.90
35111;DHT22;21290;50.158;8.658;2023-05-10T06:37:28;13.70;99.90
35111;DHT22;21290;50.158;8.658;2023-05-10T06:39:54;13.80;99.90
35111;DHT22;21290;50.158;8.658;2023-05-10T06:42:21;13.80;99.90
35111;DHT22;21290;50.158;8.658;2023-05-10T06:44:48;13.80;99.90
35111;DHT22;21290;50.158;8.658;2023-05-10T06:47:14;13.90;99.90
35111;DHT22;21290;50.158;8.658;2023-05-10T06:49:41;13.90;99.90
35111;DHT22;21290;50.158;8.658;2023-05-10T06:52:07;14.10;99.90
35111;DHT22;21290;50.158;8.658;2023-05-10T06:54:34;14.10;99.90
35111;DHT22;21290;50.158;8.658;2023-05-10T06:57:01;14.30;99.90
35111;DHT22;21290;50.158;8.658;2023-05-10T06:59:34;14.60;99.90
35111;DHT22;21290;50.158;8.658;2023-05-10T07:02:01;14.70;99.90
35111;DHT22;21290;50.158;8.658;2023-05-10T07:04:28;14.90;99.90
35111;DHT22;21290;50.158;8.658;2023-05-10T07:06:55;15.10;99.90
35111;DHT22;21290;50.158;8.658;2023-05-10T07:09:22;15.10;99.90
35111;DHT22;21290;50.158;8.658;2023-05-10T07:11:50;15.10;99.90
35111;DHT22;21290;50.158;8.658;2023-05-10T07:14:17;15.30;99.90
35111;DHT22;21290;50.158;8.658;2023-05-10T07:16:44;15.30;99.90
35111;DHT22;21290;50.158;8.658;2023-05-10T07:19:11;15.30;99.90
35111;DHT22;21290;50.158;8.658;2023-05-10T07:21:37;15.20;99.90
35111;DHT22;21290;50.158;8.658;2023-05-10T07:24:06;15.10;99.90
35111;DHT22;21290;50.158;8.658;2023-05-10T07:26:33;15.00;99.90
35111;DHT22;21290;50.158;8.658;2023-05-10T07:28:59;15.00;99.90
35111;DHT22;21290;50.158;8.658;2023-05-10T07:31:26;14.90;99.90
35111;DHT22;21290;50.158;8.658;2023-05-10T07:33:53;14.90;99.90
35111;DHT22;21290;50.158;8.658;2023-05-10T07:36:19;14.90;99.90
35111;DHT22;21290;50.158;8.658;2023-05-10T07:38:46;15.00;99.90
35111;DHT22;21290;50.158;8.658;2023-05-10T07:41:13;14.90;99.90
35111;DHT22;21290;50.158;8.658;2023-05-10T07:43:39;14.80;99.90
35111;DHT22;21290;50.158;8.658;2023-05-10T07:46:06;14.70;99.90
35111;DHT22;21290;50.158;8.658;2023-05-10T07:48:33;14.50;99.90
35111;DHT22;21290;50.158;8.658;2023-05-10T07:51:00;14.40;99.90
35111;DHT22;21290;50.158;8.658;2023-05-10T07:53:27;14.50;99.90
35111;DHT22;21290;50.158;8.658;2023-05-10T07:55:57;14.50;99.90
35111;DHT22;21290;50.158;8.658;2023-05-10T07:58:25;14.70;99.90
35111;DHT22;21290;50.158;8.658;2023-05-10T08:00:51;14.90;99.90
35111;DHT22;21290;50.158;8.658;2023-05-10T08:03:18;15.10;99.90
35111;DHT22;21290;50.158;8.658;2023-05-10T08:05:45;15.40;99.90
35111;DHT22;21290;50.158;8.658;2023-05-10T08:08:11;15.60;99.90
35111;DHT22;21290;50.158;8.658;2023-05-10T08:10:38;15.80;99.90
35111;DHT22;21290;50.158;8.658;2023-05-10T08:13:05;16.00;99.90
35111;DHT22;21290;50.158;8.658;2023-05-10T08:15:31;16.10;99.90
35111;DHT22;21290;50.158;8.658;2023-05-10T08:17:58;16.30;99.90
35111;DHT22;21290;50.158;8.658;2023-05-10T08:20:24;16.40;99.90
35111;DHT22;21290;50.158;8.658;2023-05-10T08:22:51;16.50;99.90
35111;DHT22;21290;50.158;8.658;2023-05-10T08:25:18;16.60;99.90
35111;DHT22;21290;50.158;8.658;2023-05-10T08:27:45;16.70;99.90
35111;DHT22;21290;50.158;8.658;2023-05-10T08:30:12;16.80;99.90
35111;DHT22;21290;50.158;8.658;2023-05-10T08:32:39;17.00;99.90
35111;DHT22;21290;50.158;8.658;2023-05-10T08:35:06;17.20;99.90
35111;DHT22;21290;50.158;8.658;2023-05-10T08:37:32;17.30;99.90
35111;DHT22;21290;50.158;8.658;2023-05-10T08:39:59;17.60;99.90
35111;DHT22;21290;50.158;8.658;2023-05-10T08:42:28;17.80;99.90
35111;DHT22;21290;50.158;8.658;2023-05-10T08:44:57;17.70;99.90
35111;DHT22;21290;50.158;8.658;2023-05-10T08:47:24;17.50;99.90
35111;DHT22;21290;50.158;8.658;2023-05-10T08:49:52;17.20;99.90
35111;DHT22;21290;50.158;8.658;2023-05-10T08:52:19;17.00;99.90
35111;DHT22;21290;50.158;8.658;2023-05-10T08:54:47;17.00;99.90
35111;DHT22;21290;50.158;8.658;2023-05-10T08:57:13;16.90;99.90
35111;DHT22;21290;50.158;8.658;2023-05-10T08:59:40;16.80;99.90
35111;DHT22;21290;50.158;8.658;2023-05-10T09:02:09;16.70;99.90
35111;DHT22;21290;50.158;8.658;2023-05-10T09:04:36;16.50;99.90
35111;DHT22;21290;50.158;8.658;2023-05-10T09:07:03;16.00;99.90
35111;DHT22;21290;50.158;8.658;2023-05-10T09:09:31;15.60;99.90
35111;DHT22;21290;50.158;8.658;2023-05-10T09:11:57;15.20;99.90
35111;DHT22;21290;50.158;8.658;2023-05-10T09:14:24;15.00;99.90
35111;DHT22;21290;50.158;8.658;2023-05-10T09:16:52;15.00;99.90
35111;DHT22;21290;50.158;8.658;2023-05-10T09:19:20;15.10;99.90
35111;DHT22;21290;50.158;8.658;2023-05-10T09:21:47;15.10;99.90
35111;DHT22;21290;50.158;8.658;2023-05-10T09:24:15;15.20;99.90
35111;DHT22;21290;50.158;8.658;2023-05-10T09:26:48;15.10;99.90
35111;DHT22;21290;50.158;8.658;2023-05-10T09:29:15;15.00;99.90
35111;DHT22;21290;50.158;8.658;2023-05-10T09:31:48;15.00;99.90
35111;DHT22;21290;50.158;8.658;2023-05-10T09:34:30;15.10;99.90
35111;DHT22;21290;50.158;8.658;2023-05-10T09:37:00;15.20;99.90
35111;DHT22;21290;50.158;8.658;2023-05-10T09:39:35;15.40;99.90
35111;DHT22;21290;50.158;8.658;2023-05-10T09:42:04;15.60;99.90
35111;DHT22;21290;50.158;8.658;2023-05-10T09:44:34;15.70;99.90
35111;DHT22;21290;50.158;8.658;2023-05-10T09:47:02;15.80;99.90
35111;DHT22;21290;50.158;8.658;2023-05-10T09:49:29;15.70;99.90
35111;DHT22;21290;50.158;8.658;2023-05-10T09:52:04;15.80;99.90
35111;DHT22;21290;50.158;8.658;2023-05-10T09:54:31;16.00;99.90
35111;DHT22;21290;50.158;8.658;2023-05-10T09:56:58;16.50;99.90
35111;DHT22;21290;50.158;8.658;2023-05-10T09:59:26;16.90;99.90
35111;DHT22;21290;50.158;8.658;2023-05-10T10:01:56;17.40;99.90
35111;DHT22;21290;50.158;8.658;2023-05-10T10:04:23;18.10;99.90
35111;DHT22;21290;50.158;8.658;2023-05-10T10:07:03;18.90;99.90
35111;DHT22;21290;50.158;8.658;2023-05-10T10:09:31;20.20;99.90
35111;DHT22;21290;50.158;8.658;2023-05-10T10:11:59;20.70;99.90
35111;DHT22;21290;50.158;8.658;2023-05-10T10:14:26;20.50;99.90
35111;DHT22;21290;50.158;8.658;2023-05-10T10:16:53;20.00;99.90
35111;DHT22;21290;50.158;8.658;2023-05-10T10:19:33;19.40;99.90
35111;DHT22;21290;50.158;8.658;2023-05-10T10:22:02;18.70;99.90
35111;DHT22;21290;50.158;8.658;2023-05-10T10:24:29;18.10;99.90
35111;DHT22;21290;50.158;8.658;2023-05-10T10:26:59;17.50;99.90
35111;DHT22;21290;50.158;8.658;2023-05-10T10:29:38;17.10;99.90
35111;DHT22;21290;50.158;8.658;2023-05-10T10:32:33;16.60;99.90
35111;DHT22;21290;50.158;8.658;2023-05-10T10:35:04;16.30;99.90
35111;DHT22;21290;50.158;8.658;2023-05-10T10:37:45;16.30;99.90
35111;DHT22;21290;50.158;8.658;2023-05-10T10:42:55;16.50;99.90
35111;DHT22;21290;50.158;8.658;2023-05-10T10:45:23;16.40;99.90
35111;DHT22;21290;50.158;8.658;2023-05-10T10:48:20;16.30;99.90
35111;DHT22;21290;50.158;8.658;2023-05-10T10:50:47;16.30;99.90
35111;DHT22;21290;50.158;8.658;2023-05-10T10:53:14;16.40;99.90
35111;DHT22;21290;50.158;8.658;2023-05-10T10:55:47;16.40;99.90
35111;DHT22;21290;50.158;8.658;2023-05-10T10:58:30;16.00;99.90
35111;DHT22;21290;50.158;8.658;2023-05-10T11:01:14;15.60;99.90
35111;DHT22;21290;50.158;8.658;2023-05-10T11:04:16;15.30;99.90
35111;DHT22;21290;50.158;8.658;2023-05-10T11:06:41;15.10;99.90
35111;DHT22;21290;50.158;8.658;2023-05-10T11:09:10;14.90;99.90
35111;DHT22;21290;50.158;8.658;2023-05-10T11:11:54;14.90;99.90
35111;DHT22;21290;50.158;8.658;2023-05-10T11:14:25;14.90;99.90
35111;DHT22;21290;50.158;8.658;2023-05-10T11:16:52;15.00;99.90
35111;DHT22;21290;50.158;8.658;2023-05-10T11:19:19;15.10;99.90
35111;DHT22;21290;50.158;8.658;2023-05-10T11:21:50;15.30;99.90
35111;DHT22;21290;50.158;8.658;2023-05-10T11:24:19;15.60;99.90
35111;DHT22;21290;50.158;8.658;2023-05-10T11:26:52;15.80;99.90
35111;DHT22;21290;50.158;8.658;2023-05-10T11:29:19;16.00;99.90
35111;DHT22;21290;50.158;8.658;2023-05-10T11:31:47;16.20;99.90
35111;DHT22;21290;50.158;8.658;2023-05-10T11:34:28;16.60;99.90
35111;DHT22;21290;50.158;8.658;2023-05-10T11:36:57;16.80;99.90
35111;DHT22;21290;50.158;8.658;2023-05-10T11:39:28;17.30;99.90
35111;DHT22;21290;50.158;8.658;2023-05-10T11:41:55;17.80;99.90
35111;DHT22;21290;50.158;8.658;2023-05-10T11:44:22;18.00;99.90
35111;DHT22;21290;50.158;8.658;2023-05-10T11:46:49;18.10;99.90
35111;DHT22;21290;50.158;8.658;2023-05-10T11:49:16;18.10;99.90
35111;DHT22;21290;50.158;8.658;2023-05-10T11:51:42;18.10;99.90
35111;DHT22;21290;50.158;8.658;2023-05-10T11:54:10;18.20;99.90
35111;DHT22;21290;50.158;8.658;2023-05-10T11:56:38;18.40;99.90
35111;DHT22;21290;50.158;8.658;2023-05-10T11:59:05;18.50;99.90
35111;DHT22;21290;50.158;8.658;2023-05-10T12:01:32;18.60;99.90
35111;DHT22;21290;50.158;8.658;2023-05-10T12:03:59;18.70;99.90
35111;DHT22;21290;50.158;8.658;2023-05-10T12:06:31;18.60;99.90
35111;DHT22;21290;50.158;8.658;2023-05-10T12:08:59;18.50;99.90
35111;DHT22;21290;50.158;8.658;2023-05-10T12:11:28;18.30;99.90
35111;DHT22;21290;50.158;8.658;2023-05-10T12:13:55;18.10;99.90
35111;DHT22;21290;50.158;8.658;2023-05-10T12:16:28;17.90;99.90
35111;DHT22;21290;50.158;8.658;2023-05-10T12:18:59;17.80;99.90
35111;DHT22;21290;50.158;8.658;2023-05-10T12:21:27;17.80;99.90
35111;DHT22;21290;50.158;8.658;2023-05-10T12:23:59;17.80;99.90
35111;DHT22;21290;50.158;8.658;2023-05-10T12:26:28;17.80;99.90
35111;DHT22;21290;50.158;8.658;2023-05-10T12:29:01;18.00;99.90
35111;DHT22;21290;50.158;8.658;2023-05-10T12:31:57;18.10;99.90
35111;DHT22;21290;50.158;8.658;2023-05-10T12:34:34;18.60;99.90
35111;DHT22;21290;50.158;8.658;2023-05-10T12:37:03;19.10;99.90
35111;DHT22;21290;50.158;8.658;2023-05-10T12:39:45;19.30;99.90
35111;DHT22;21290;50.158;8.658;2023-05-10T12:42:12;19.60;99.90
35111;DHT22;21290;50.158;8.658;2023-05-10T12:44:39;19.90;99.90
35111;DHT22;21290;50.158;8.658;2023-05-10T12:47:06;20.20;99.90
35111;DHT22;21290;50.158;8.658;2023-05-10T12:49:32;20.30;99.90
35111;DHT22;21290;50.158;8.658;2023-05-10T12:52:00;20.10;99.90
35111;DHT22;21290;50.158;8.658;2023-05-10T12:54:26;20.00;99.90
35111;DHT22;21290;50.158;8.658;2023-05-10T12:56:54;20.00;99.90
35111;DHT22;21290;50.158;8.658;2023-05-10T12:59:21;20.10;99.90
35111;DHT22;21290;50.158;8.658;2023-05-10T13:01:47;20.20;99.90
35111;DHT22;21290;50.158;8.658;2023-05-10T13:04:14;20.30;99.90
35111;DHT22;21290;50.158;8.658;2023-05-10T13:06:40;20.50;99.90
35111;DHT22;21290;50.158;8.658;2023-05-10T13:09:07;20.60;99.90
35111;DHT22;21290;50.158;8.658;2023-05-10T13:11:34;20.90;99.90
35111;DHT22;21290;50.158;8.658;2023-05-10T13:14:00;21.00;99.90
35111;DHT22;21290;50.158;8.658;2023-05-10T13:16:27;21.00;99.90
35111;DHT22;21290;50.158;8.658;2023-05-10T13:18:54;20.90;99.90
35111;DHT22;21290;50.158;8.658;2023-05-10T13:21:20;20.60;99.90
35111;DHT22;21290;50.158;8.658;2023-05-10T13:23:47;20.30;99.90
35111;DHT22;21290;50.158;8.658;2023-05-10T13:26:14;20.00;99.90
35111;DHT22;21290;50.158;8.658;2023-05-10T13:28:40;19.80;99.90
35111;DHT22;21290;50.158;8.658;2023-05-10T13:31:08;19.50;99.90
35111;DHT22;21290;50.158;8.658;2023-05-10T13:33:35;19.50;99.90
35111;DHT22;21290;50.158;8.658;2023-05-10T13:36:01;19.40;99.90
35111;DHT22;21290;50.158;8.658;2023-05-10T13:38:28;19.30;99.90
35111;DHT22;21290;50.158;8.658;2023-05-10T13:40:54;19.20;99.90
35111;DHT22;21290;50.158;8.658;2023-05-10T13:43:21;19.00;99.90
35111;DHT22;21290;50.158;8.658;2023-05-10T13:45:48;18.80;99.90
35111;DHT22;21290;50.158;8.658;2023-05-10T13:48:15;18.70;99.90
35111;DHT22;21290;50.158;8.658;2023-05-10T13:50:42;18.70;99.90
35111;DHT22;21290;50.158;8.658;2023-05-10T13:53:09;18.80;99.90
35111;DHT22;21290;50.158;8.658;2023-05-10T13:55:36;18.90;99.90
35111;DHT22;21290;50.158;8.658;2023-05-10T13:58:02;18.90;99.90
35111;DHT22;21290;50.158;8.658;2023-05-10T14:00:29;19.10;99.90
35111;DHT22;21290;50.158;8.658;2023-05-10T14:02:56;19.40;99.90
35111;DHT22;21290;50.158;8.658;2023-05-10T14:05:23;19.40;99.90
35111;DHT22;21290;50.158;8.658;2023-05-10T14:07:52;19.50;99.90
35111;DHT22;21290;50.158;8.658;2023-05-10T14:10:18;19.60;99.90
35111;DHT22;21290;50.158;8.658;2023-05-10T14:12:45;19.60;99.90
35111;DHT22;21290;50.158;8.658;2023-05-10T14:15:12;19.80;99.90
35111;DHT22;21290;50.158;8.658;2023-05-10T14:17:38;19.90;99.90
35111;DHT22;21290;50.158;8.658;2023-05-10T14:20:06;19.80;99.90
35111;DHT22;21290;50.158;8.658;2023-05-10T14:22:33;19.70;99.90
35111;DHT22;21290;50.158;8.658;2023-05-10T14:25:00;19.70;99.90
35111;DHT22;21290;50.158;8.658;2023-05-10T14:27:26;19.60;99.90
35111;DHT22;21290;50.158;8.658;2023-05-10T14:29:53;19.50;99.90
35111;DHT22;21290;50.158;8.658;2023-05-10T14:32:20;19.40;99.90
35111;DHT22;21290;50.158;8.658;2023-05-10T14:34:46;19.40;99.90
35111;DHT22;21290;50.158;8.658;2023-05-10T14:37:13;19.30;99.90
35111;DHT22;21290;50.158;8.658;2023-05-10T14:39:40;19.30;99.90
35111;DHT22;21290;50.158;8.658;2023-05-10T14:42:08;19.40;99.90
35111;DHT22;21290;50.158;8.658;2023-05-10T14:44:35;19.50;99.90
35111;DHT22;21290;50.158;8.658;2023-05-10T14:47:01;19.50;99.90
35111;DHT22;21290;50.158;8.658;2023-05-10T14:49:28;19.50;99.90
35111;DHT22;21290;50.158;8.658;2023-05-10T14:51:55;19.60;99.90
35111;DHT22;21290;50.158;8.658;2023-05-10T14:54:22;19.70;99.90
35111;DHT22;21290;50.158;8.658;2023-05-10T14:56:48;19.80;99.90
35111;DHT22;21290;50.158;8.658;2023-05-10T14:59:16;19.70;99.90
35111;DHT22;21290;50.158;8.658;2023-05-10T15:01:43;19.60;99.90
35111;DHT22;21290;50.158;8.658;2023-05-10T15:04:11;19.60;99.90
35111;DHT22;21290;50.158;8.658;2023-05-10T15:06:39;19.50;99.90
35111;DHT22;21290;50.158;8.658;2023-05-10T15:09:06;19.60;99.90
35111;DHT22;21290;50.158;8.658;2023-05-10T15:11:32;19.60;99.90
35111;DHT22;21290;50.158;8.658;2023-05-10T15:13:59;19.50;99.90
35111;DHT22;21290;50.158;8.658;2023-05-10T15:16:25;19.40;99.90
35111;DHT22;21290;50.158;8.658;2023-05-10T15:18:52;19.30;99.90
35111;DHT22;21290;50.158;8.658;2023-05-10T15:21:19;19.30;99.90
35111;DHT22;21290;50.158;8.658;2023-05-10T15:23:45;19.30;99.90
35111;DHT22;21290;50.158;8.658;2023-05-10T15:26:12;19.40;99.90
35111;DHT22;21290;50.158;8.658;2023-05-10T15:28:39;19.40;99.90
35111;DHT22;21290;50.158;8.658;2023-05-10T15:31:05;19.30;99.90
35111;DHT22;21290;50.158;8.658;2023-05-10T15:33:32;19.30;99.90
35111;DHT22;21290;50.158;8.658;2023-05-10T15:35:59;19.50;99.90
35111;DHT22;21290;50.158;8.658;2023-05-10T15:38:25;19.40;99.90
35111;DHT22;21290;50.158;8.658;2023-05-10T15:40:56;19.40;99.90
35111;DHT22;21290;50.158;8.658;2023-05-10T15:43:23;19.40;99.90
35111;DHT22;21290;50.158;8.658;2023-05-10T15:45:50;19.30;99.90
35111;DHT22;21290;50.158;8.658;2023-05-10T15:48:16;19.30;99.90
35111;DHT22;21290;50.158;8.658;2023-05-10T15:50:43;19.20;99.90